createdAt,value
2019-04-01T04:07:32.618Z,33.58
2019-04-01T04:12:33.238Z,34.76
2019-04-01T04:17:33.697Z,35.40
2019-04-01T04:22:34.145Z,35.38
2019-04-01T04:27:34.804Z,32.95
2019-04-01T04:32:35.312Z,28.37
2019-04-01T04:37:35.806Z,29.17
2019-04-01T04:42:36.440Z,29.17
2019-04-01T04:47:36.879Z,30.57
2019-04-01T04:52:37.518Z,30.39
2019-04-01T04:57:37.996Z,30.52
2019-04-01T05:02:38.820Z,31.36
2019-04-01T05:07:39.480Z,32.01
2019-04-01T05:12:39.938Z,32.34
2019-04-01T05:17:40.384Z,32.38
2019-04-01T05:22:41.005Z,33.24
2019-04-01T05:27:41.676Z,32.94
2019-04-01T05:32:42.298Z,32.86
2019-04-01T05:37:42.859Z,33.23
2019-04-01T05:42:43.535Z,33.44
2019-04-01T05:47:44.164Z,33.90
2019-04-01T05:52:44.814Z,34.48
2019-04-01T05:57:45.436Z,34.64
2019-04-01T06:02:45.871Z,34.93
2019-04-01T06:07:46.208Z,34.94
2019-04-01T06:12:46.790Z,35.16
2019-04-01T06:17:47.258Z,35.56
2019-04-01T06:22:47.674Z,35.54
2019-04-01T06:27:48.131Z,35.01
2019-04-01T06:32:48.562Z,35.46
2019-04-01T06:37:49.186Z,35.27
2019-04-01T06:42:49.668Z,35.22
2019-04-01T06:47:50.315Z,35.91
2019-04-01T06:52:50.754Z,35.79
2019-04-01T06:57:51.199Z,35.50
2019-04-01T07:02:51.643Z,35.42
2019-04-01T07:07:52.056Z,35.45
2019-04-01T07:12:52.531Z,35.37
2019-04-01T07:17:53.365Z,35.61
2019-04-01T07:22:53.829Z,35.37
2019-04-01T07:27:54.247Z,36.22
2019-04-01T07:32:54.727Z,35.73
2019-04-01T07:37:55.086Z,35.67
2019-04-01T07:42:55.588Z,36.00
2019-04-01T07:47:56.041Z,35.95
2019-04-01T07:52:56.682Z,35.92
2019-04-01T07:57:59.721Z,35.54
2019-04-01T08:02:58.589Z,35.81
2019-04-01T08:07:59.093Z,35.89
2019-04-01T08:12:59.895Z,35.90
2019-04-01T08:18:00.344Z,35.77
2019-04-01T08:23:00.991Z,35.81
2019-04-01T08:28:01.644Z,35.95
2019-04-01T08:33:02.091Z,35.85
2019-04-01T08:38:02.733Z,35.94
2019-04-01T08:43:03.389Z,35.65
2019-04-01T08:48:04.007Z,35.78
2019-04-01T08:53:04.505Z,35.83
2019-04-01T08:58:05.118Z,35.78
2019-04-01T09:03:05.767Z,35.99
2019-04-01T09:08:06.403Z,36.13
2019-04-01T09:13:06.844Z,36.13
2019-04-01T09:18:07.504Z,36.07
2019-04-01T09:23:07.911Z,35.94
2019-04-01T09:28:08.608Z,36.50
2019-04-01T09:33:09.044Z,36.58
2019-04-01T09:38:09.487Z,36.05
2019-04-01T09:43:12.415Z,36.38
2019-04-01T09:48:10.592Z,35.96
2019-04-01T09:53:11.021Z,36.34
2019-04-01T09:58:11.555Z,36.38
2019-04-01T10:03:12.128Z,36.54
2019-04-01T10:08:12.553Z,36.66
2019-04-01T10:13:13.035Z,36.24
2019-04-01T10:18:13.642Z,36.32
2019-04-01T10:23:14.107Z,36.01
2019-04-01T10:28:14.857Z,37.02
2019-04-01T10:33:15.409Z,36.43
2019-04-01T10:38:15.858Z,36.79
2019-04-01T10:43:16.266Z,36.46
2019-04-01T10:48:16.747Z,36.99
2019-04-01T10:53:17.228Z,37.25
2019-04-01T10:58:18.092Z,36.67
2019-04-01T11:03:18.866Z,36.64
2019-04-01T11:08:19.805Z,36.31
2019-04-01T11:13:21.899Z,36.69
2019-04-01T11:18:20.820Z,36.73
2019-04-01T11:23:21.224Z,36.39
2019-04-01T11:28:21.938Z,37.13
2019-04-01T11:33:22.378Z,36.86
2019-04-01T11:38:22.994Z,36.88
2019-04-01T11:43:23.960Z,37.24
2019-04-01T11:48:24.440Z,36.92
2019-04-01T11:53:24.960Z,36.85
2019-04-01T11:58:25.406Z,37.18
2019-04-01T12:03:25.838Z,36.71
2019-04-01T12:08:26.315Z,37.20
2019-04-01T12:13:26.927Z,37.05
2019-04-01T12:18:27.356Z,37.24
2019-04-01T12:23:28.153Z,37.34
2019-04-01T12:28:28.655Z,37.32
2019-04-01T12:33:29.332Z,36.71
2019-04-01T12:38:29.751Z,37.22
2019-04-01T12:43:30.402Z,37.25
2019-04-01T12:48:30.891Z,36.81
2019-04-01T12:53:31.299Z,37.10
2019-04-01T12:58:31.954Z,36.97
2019-04-01T13:03:32.370Z,37.08
2019-04-01T13:08:32.963Z,37.64
2019-04-01T13:13:33.502Z,37.55
2019-04-01T13:18:33.927Z,37.35
2019-04-01T13:23:34.389Z,37.53
2019-04-01T13:28:34.797Z,37.74
2019-04-01T13:33:35.233Z,37.75
2019-04-01T13:38:35.712Z,38.03
2019-04-01T13:43:36.154Z,37.88
2019-04-01T13:48:36.812Z,37.68
2019-04-01T13:53:37.221Z,37.88
2019-04-01T13:58:39.295Z,38.00
2019-04-01T14:03:37.927Z,36.39
2019-04-01T14:08:38.373Z,36.76
2019-04-01T14:13:38.999Z,36.68
2019-04-01T14:18:39.416Z,36.89
2019-04-01T14:23:40.105Z,36.87
2019-04-01T14:28:40.737Z,37.29
2019-04-01T14:33:41.221Z,36.46
2019-04-01T14:38:41.649Z,36.37
2019-04-01T14:43:42.296Z,36.31
2019-04-01T14:48:42.917Z,36.29
2019-04-01T14:53:43.556Z,37.08
2019-04-01T14:58:44.239Z,36.94
2019-04-01T15:03:44.712Z,37.22
2019-04-01T15:08:45.335Z,36.76
2019-04-01T15:13:45.765Z,37.05
2019-04-01T15:18:46.445Z,36.87
2019-04-01T15:23:47.086Z,37.11
2019-04-01T15:28:47.531Z,36.86
2019-04-01T15:33:47.969Z,36.89
2019-04-01T15:38:48.396Z,37.21
2019-04-01T15:43:48.834Z,37.00
2019-04-01T15:48:49.341Z,35.53
2019-04-01T15:53:49.708Z,35.37
2019-04-01T15:58:50.942Z,36.14
2019-04-01T16:03:51.647Z,36.02
2019-04-01T16:08:52.068Z,36.27
2019-04-01T16:13:52.515Z,36.56
2019-04-01T16:18:53.235Z,34.78
2019-04-01T16:23:54.044Z,35.44
2019-04-01T16:28:54.690Z,36.21
2019-04-01T16:33:55.107Z,36.18
2019-04-01T16:38:55.581Z,36.61
2019-04-01T16:43:56.027Z,36.81
2019-04-01T16:48:56.453Z,36.96
2019-04-01T16:53:57.032Z,37.64
2019-04-01T16:58:57.565Z,34.94
2019-04-01T17:03:57.958Z,33.11
2019-04-01T17:08:58.412Z,33.05
2019-04-01T17:13:58.854Z,35.05
2019-04-01T17:18:59.358Z,35.14
2019-04-01T17:23:59.971Z,32.65
2019-04-01T17:29:00.611Z,35.54
2019-04-01T17:34:01.199Z,34.72
2019-04-01T17:39:01.710Z,34.92
2019-04-01T17:44:02.355Z,35.02
2019-04-01T17:49:03.018Z,35.36
2019-04-01T17:54:03.666Z,31.97
2019-04-01T17:59:04.293Z,32.25
2019-04-01T18:04:05.091Z,31.33
2019-04-01T18:09:05.823Z,31.09
2019-04-01T18:14:06.460Z,30.99
2019-04-01T18:19:07.505Z,30.92
2019-04-01T18:24:08.137Z,35.42
2019-04-01T18:29:09.935Z,37.16
2019-04-01T18:34:10.702Z,36.21
2019-04-01T18:39:11.133Z,35.13
2019-04-01T18:44:11.577Z,34.28
2019-04-01T18:49:12.362Z,34.23
2019-04-01T18:54:12.860Z,33.92
2019-04-01T18:59:13.317Z,34.03
2019-04-01T19:04:13.734Z,33.16
2019-04-01T19:09:14.214Z,33.04
2019-04-01T19:14:14.895Z,33.93
2019-04-01T19:19:15.511Z,34.32
2019-04-01T19:24:15.906Z,34.17
2019-04-01T19:29:16.521Z,34.27
2019-04-01T19:34:17.439Z,35.04
2019-04-01T19:39:17.886Z,35.11
2019-04-01T19:44:18.339Z,34.62
2019-04-01T19:49:18.772Z,34.80
2019-04-01T19:54:28.004Z,35.59
2019-04-01T19:59:19.636Z,35.59
2019-04-01T20:04:20.114Z,35.80
2019-04-01T20:09:20.531Z,36.37
2019-04-01T20:14:21.005Z,36.29
2019-04-01T20:19:21.406Z,36.47
2019-04-01T20:24:21.904Z,36.95
2019-04-01T20:29:22.337Z,37.11
2019-04-01T20:34:22.977Z,36.85
2019-04-01T20:39:24.277Z,37.38
2019-04-01T20:44:23.937Z,37.39
2019-04-01T20:49:24.394Z,37.31
2019-04-01T20:54:24.828Z,37.39
2019-04-01T20:59:25.629Z,34.99
2019-04-01T21:04:27.181Z,35.24
2019-04-01T21:09:28.035Z,34.98
2019-04-01T21:14:28.644Z,34.79
2019-04-01T21:19:29.301Z,35.54
2019-04-01T21:24:29.756Z,35.14
2019-04-01T21:29:30.216Z,35.20
2019-04-01T21:34:30.835Z,35.03
2019-04-01T21:39:31.489Z,35.57
2019-04-01T21:44:31.927Z,35.68
2019-04-01T21:49:32.618Z,35.11
2019-04-01T21:54:33.053Z,36.12
2019-04-01T21:59:33.487Z,35.26
2019-04-01T22:04:33.913Z,35.51
2019-04-01T22:09:34.450Z,35.20
2019-04-01T22:14:35.034Z,35.62
2019-04-01T22:19:35.448Z,35.34
2019-04-01T22:24:35.812Z,35.66
2019-04-01T22:29:36.360Z,35.64
2019-04-01T22:34:38.064Z,35.80
2019-04-01T22:39:38.681Z,36.06
2019-04-01T22:44:39.127Z,35.83
2019-04-01T22:49:41.134Z,36.17
2019-04-01T22:54:40.007Z,35.59
2019-04-01T22:59:40.438Z,36.14
2019-04-01T23:04:40.909Z,35.76
2019-04-01T23:09:41.325Z,35.88
2019-04-01T23:14:41.781Z,35.87
2019-04-01T23:19:42.201Z,35.73
2019-04-01T23:24:42.656Z,35.77
2019-04-01T23:29:43.099Z,36.17
2019-04-01T23:34:43.612Z,36.04
2019-04-01T23:39:44.223Z,36.12
2019-04-01T23:44:44.673Z,36.13
2019-04-01T23:49:45.078Z,36.11
2019-04-01T23:54:45.522Z,36.17
2019-04-01T23:59:45.992Z,36.23
